Monday, December 18, 2017, 4:57 AM CST
Back to Local

KFOE, Forbes Field

Location: Topeka, KS, United States Lat: 38.933
Local Time: 4:57 AM CST (10:57 GMT) Lon: -95.65
Time Zone: US/Central Elev: 1079 ft

Show me the last for .
Show Decoded

2017-12-18 03:53 METAR KFOE 180953Z AUTO 24007KT 5SM BR CLR 03/02 A3003 RMK AO2 SLP171 T00280022
                 =
2017-12-18 02:53 METAR KFOE 180853Z AUTO 22004KT 6SM BR CLR 03/03 A3002 RMK AO2 SLP170 T00330028
                 55002 =
2017-12-18 01:53 METAR KFOE 180753Z AUTO 24005KT 7SM BKN031 04/03 A3002 RMK AO2 SLP167 T00440033
                 =
2017-12-18 00:53 METAR KFOE 180653Z AUTO 23006KT 9SM OVC033 07/05 A3002 RMK AO2 SLP168 T00720050
                 =
2017-12-18 00:16 METAR KFOE 180616Z AUTO 20007KT 9SM SCT024 OVC033 07/05 A3002 RMK AO2 T00720050
                 =
2017-12-17 23:53 METAR KFOE 180553Z AUTO 22008KT 9SM OVC024 08/05 A3003 RMK AO2 SLP171 T00780050
                 10094 20067 401110061 51006 =
2017-12-17 23:43 METAR KFOE 180543Z AUTO 23008KT 9SM BKN026 OVC036 08/05 A3003 RMK AO2 T00780050
                 =
2017-12-17 22:53 METAR KFOE 180453Z AUTO 24009KT 9SM OVC036 08/05 A3003 RMK AO2 SLP171 T00780050
                 =
2017-12-17 21:53 METAR KFOE 180353Z 21007KT 8SM OVC035 07/06 A3002 RMK AO2 SLP168 T00720056 =
2017-12-17 20:53 METAR KFOE 180253Z 20008KT 8SM BKN039 07/06 A3001 RMK AO2 SLP165 T00720056 51008
                 =
2017-12-17 20:37 METAR KFOE 180237Z 20008KT 8SM SCT029 SCT039 07/06 A3001 RMK AO2 T00670056 =
2017-12-17 20:22 METAR KFOE 180222Z 20008KT 8SM BKN029 08/06 A3001 RMK AO2 T00780056 =
2017-12-17 20:10 METAR KFOE 180210Z 19008KT 8SM BKN030 07/06 A3000 RMK AO2 T00720056 =
2017-12-17 19:53 METAR KFOE 180153Z 19008KT 8SM BKN027 08/06 A3001 RMK AO2 SLP165 T00780056 =
2017-12-17 19:36 METAR KFOE 180136Z 18007KT 9SM BKN026 OVC044 08/06 A3000 RMK AO2 T00830061 =
2017-12-17 18:53 METAR KFOE 180053Z 18008KT 9SM OVC045 09/07 A3000 RMK AO2 SLP163 T00890067 =
2017-12-17 18:13 METAR KFOE 180013Z 18007KT 10SM SCT021 OVC045 09/07 A2999 RMK AO2 T00940067 =
2017-12-17 18:01 METAR KFOE 180001Z 18006KT 10SM BKN020 OVC043 09/07 A2999 RMK AO2 T00940067 =
2017-12-17 17:53 METAR KFOE 172353Z 18006KT 10SM SCT021 OVC041 09/07 A2999 RMK AO2 SLP156
                 T00940067 10111 20094 51003 =
2017-12-17 17:50 METAR KFOE 172350Z 18007KT 10SM SCT021 OVC041 09/07 A2998 RMK AO2 =
2017-12-17 17:10 METAR KFOE 172310Z 14005KT 10SM BKN024 BKN030 OVC037 10/07 A2999 RMK AO2
                 T01000067 =
2017-12-17 16:53 METAR KFOE 172253Z 12003KT 10SM OVC037 10/07 A2998 RMK AO2 SLP156 T01000067 =
2017-12-17 15:53 METAR KFOE 172153Z 12003KT 10SM SCT036 11/06 A2998 RMK AO2 SLP152 T01110061 =
2017-12-17 14:53 METAR KFOE 172053Z 20003KT 10SM OVC030 11/06 A2997 RMK AO2 SLP150 T01060061
                 53004 =
2017-12-17 14:26 METAR KFOE 172026Z 00000KT 10SM FEW021 OVC031 11/06 A2996 RMK AO2 T01060061 =
2017-12-17 13:53 METAR KFOE 171953Z 00000KT 10SM SCT018 BKN024 11/06 A2997 RMK AO2 SLP148
                 T01060056 =
2017-12-17 12:53 METAR KFOE 171853Z 30006KT 10SM BKN015 BKN030 10/07 A2995 RMK AO2 SLP145
                 T01000067 =
2017-12-17 12:50 METAR KFOE 171850Z 31008KT 10SM BKN015 OVC030 10/07 A2996 RMK AO2 =
2017-12-17 12:42 METAR KFOE 171842Z 29006KT 9SM BKN013 OVC030 10/07 A2996 RMK AO2 T01000067 =
2017-12-17 12:06 METAR KFOE 171806Z 26008KT 8SM SCT011 BKN028 09/07 A2998 RMK AO2 T00940072 =
2017-12-17 11:53 METAR KFOE 171753Z 27009KT 8SM BKN010 BKN028 09/07 A2998 RMK AO2 SLP156 60007
                 T00940067 10094 20067 58014 =
2017-12-17 11:33 METAR KFOE 171733Z 26011KT 7SM BKN009 BKN014 OVC027 09/08 A2999 RMK AO2 CIG
                 008V012 T00940078 =
2017-12-17 11:24 METAR KFOE 171724Z 26008KT 7SM BKN011 BKN026 OVC037 09/08 A3000 RMK AO2 CIG
                 008V015 T00940078 =
2017-12-17 11:16 METAR KFOE 171716Z 24007KT 7SM BKN009 BKN026 OVC037 09/07 A3000 RMK AO2 CIG
                 007V015 T00890072 =
2017-12-17 11:02 METAR KFOE 171702Z 25006KT 7SM OVC011 08/07 A3002 RMK AO2 T00830072 =
2017-12-17 10:53 METAR KFOE 171653Z 23007KT 7SM BKN009 OVC015 08/07 A3002 RMK AO2 CIG 007V012
                 SLP169 T00830067 =
2017-12-17 10:07 METAR KFOE 171607Z 22007KT 8SM BKN007 OVC015 08/07 A3003 RMK AO2 CIG 005V010
                 T00780067 =
2017-12-17 10:00 METAR KFOE 171600Z 22007KT 8SM SCT007 OVC015 08/07 A3003 RMK AO2 T00780067 =
2017-12-17 09:53 METAR KFOE 171553Z 22006KT 8SM SCT006 OVC014 08/07 A3003 RMK AO2 SLP170
                 T00780067 =
2017-12-17 08:53 METAR KFOE 171453Z 19008KT 10SM OVC005 07/06 A3003 RMK AO2 RAE03 SLP170 P0000
                 60007 T00720061 51015 =
2017-12-17 08:31 METAR KFOE 171431Z 18006KT 10SM OVC005 07/06 A3001 RMK AO2 RAE03 P0000 T00720061
                 =
2017-12-17 07:53 METAR KFOE 171353Z 19005KT 3SM -RA BR BKN004 OVC018 07/06 A3000 RMK AO2 RAB26
                 SLP162 P0002 T00670061 =
2017-12-17 07:50 METAR KFOE 171350Z 19007KT 3SM -RA BR BKN004 OVC016 07/06 A3001 RMK AO2 RAB26
                 P0002 =
2017-12-17 07:36 METAR KFOE 171336Z 18009KT 2 1/2SM -RA BR BKN004 OVC014 07/06 A3001 RMK AO2
                 RAB26 P0001 T00670061 =
2017-12-17 07:28 METAR KFOE 171328Z 19009KT 2 1/2SM -RA BR BKN006 BKN015 OVC023 07/06 A3001 RMK
                 AO2 RAB26 P0001 T00670061 =
2017-12-17 06:53 METAR KFOE 171253Z 16005KT 5SM BR FEW006 FEW021 OVC027 07/06 A2998 RMK AO2 RAE32
                 SLP154 P0005 T00670061 =
2017-12-17 06:42 METAR KFOE 171242Z 16004KT 8SM SCT006 OVC029 07/06 A2998 RMK AO2 RAE32 P0005
                 T00670061 =
2017-12-17 05:53 METAR KFOE 171153Z 16004KT 3SM RA BR BKN006 OVC027 07/06 A2997 RMK AO2 SLP152
                 P0015 60033 70033 T00670061 10100 20061 51009 =
2017-12-17 05:24 METAR KFOE 171124Z AUTO 13003KT 3SM RA BR BKN007 OVC020 07/06 A2997 RMK AO2
                 P0008 T00670061 =

Support USWX by starting your Amazon purchase here.